createdAt,value
2018-11-23T06:31:23.550Z,33.43
2018-11-23T06:32:23.539Z,33.53
2018-11-23T06:35:23.503Z,34.02
2018-11-23T06:36:23.752Z,34.02
2018-11-23T06:37:23.730Z,34.12
2018-11-23T06:38:23.469Z,34.12
2018-11-23T06:39:23.568Z,34.12
2018-11-23T06:40:23.451Z,34.02
2018-11-23T06:41:23.453Z,33.72
2018-11-23T06:42:23.932Z,33.62
2018-11-23T06:43:23.422Z,34.12
2018-11-23T06:44:23.660Z,34.02
2018-11-23T06:45:23.387Z,33.52
2018-11-23T06:46:23.637Z,34.12
2018-11-23T06:47:23.363Z,33.52
2018-11-23T06:48:23.355Z,34.02
2018-11-23T06:49:23.357Z,34.12
2018-11-23T06:50:23.332Z,33.72
2018-11-23T06:51:23.574Z,33.82
2018-11-23T06:52:23.811Z,34.12
2018-11-23T06:53:23.296Z,34.52
2018-11-23T06:54:23.535Z,34.32
2018-11-23T06:55:23.315Z,34.22
2018-11-23T06:56:23.270Z,34.22
2018-11-23T06:57:23.790Z,34.32
2018-11-23T06:58:23.239Z,34.42
2018-11-23T06:59:23.234Z,34.42
2018-11-23T07:00:23.215Z,34.30
2018-11-23T07:01:23.213Z,34.32
2018-11-23T07:02:23.204Z,33.70
2018-11-23T07:03:23.189Z,34.21
2018-11-23T07:04:23.423Z,34.21
2018-11-23T07:05:23.176Z,33.90
2018-11-23T07:06:23.153Z,34.00
2018-11-23T07:07:23.159Z,33.80
2018-11-23T07:08:23.130Z,34.30
2018-11-23T07:09:23.114Z,34.10
2018-11-23T07:10:23.356Z,34.21
2018-11-23T07:11:23.099Z,34.21
2018-11-23T07:12:23.104Z,34.30
2018-11-23T07:13:23.083Z,34.28
2018-11-23T07:14:23.070Z,34.21
2018-11-23T07:15:23.053Z,34.41
2018-11-23T07:16:23.067Z,34.21
2018-11-23T07:17:23.038Z,34.10
2018-11-23T07:18:23.325Z,34.30
2018-11-23T07:19:23.006Z,34.28
2018-11-23T07:20:23.001Z,34.28
2018-11-23T07:21:22.981Z,34.19
2018-11-23T07:22:22.976Z,34.19
2018-11-23T07:23:22.957Z,33.80
2018-11-23T07:24:23.210Z,34.28
2018-11-23T07:25:23.196Z,33.69
2018-11-23T07:26:23.168Z,34.09
2018-11-23T07:27:22.913Z,34.09
2018-11-23T07:28:22.906Z,33.48
2018-11-23T07:29:22.893Z,33.78
2018-11-23T07:30:23.127Z,33.99
2018-11-23T07:31:23.129Z,33.69
2018-11-23T07:32:22.861Z,33.69
2018-11-23T07:33:22.842Z,33.48
2018-11-23T07:34:22.958Z,33.28
2018-11-23T07:35:22.824Z,33.58
2018-11-23T07:36:22.808Z,33.78
2018-11-23T07:37:23.309Z,33.69
2018-11-23T07:38:22.797Z,33.58
2018-11-23T07:39:23.032Z,33.39
2018-11-23T07:40:22.773Z,33.39
2018-11-23T07:41:22.783Z,33.19
2018-11-23T07:42:22.994Z,33.48
2018-11-23T07:43:22.732Z,33.78
2018-11-23T07:44:23.232Z,33.58
2018-11-23T07:45:22.960Z,33.58
2018-11-23T07:46:22.700Z,33.39
2018-11-23T07:47:22.687Z,33.37
2018-11-23T07:48:22.929Z,33.67
2018-11-23T07:49:22.664Z,33.78
2018-11-23T07:50:22.641Z,33.58
2018-11-23T07:51:22.647Z,33.48
2018-11-23T07:52:22.625Z,33.48
2018-11-23T07:53:22.636Z,33.97
2018-11-23T07:54:22.866Z,33.77
2018-11-23T07:55:22.618Z,33.89
2018-11-23T07:56:22.590Z,33.87
2018-11-23T07:58:03.442Z,34.17
2018-11-23T07:59:03.613Z,34.07
2018-11-23T08:00:03.619Z,34.19
2018-11-23T08:01:03.618Z,33.97
2018-11-23T08:02:03.345Z,33.17
2018-11-23T08:03:03.338Z,33.27
2018-11-23T08:04:03.327Z,33.37
2018-11-23T08:05:03.593Z,33.17
2018-11-23T08:06:03.323Z,33.47
2018-11-23T08:07:03.284Z,33.28
2018-11-23T08:08:03.324Z,33.37
2018-11-23T08:09:03.272Z,33.37
2018-11-23T08:10:03.252Z,33.57
2018-11-23T08:11:03.505Z,33.37
2018-11-23T08:12:03.793Z,33.87
2018-11-23T08:13:03.477Z,33.37
2018-11-23T08:14:06.283Z,33.57
2018-11-23T08:15:07.738Z,33.87
2018-11-23T08:16:06.211Z,33.57
2018-11-23T08:17:09.449Z,33.57
